Time;durP1;ratioP1;P1;durP2;ratioP2;P2;SDS_P1;SDS_P2;PMS_P1;PMS_P2;Temp;Humidity;BMP_temperature;BMP_pressure;BME280_temperature;BME280_humidity;BME280_pressure;Samples;Min_cycle;Max_cycle;Signal;HPM_P1;HPM_P2
2022/10/14 00:01:54;;;;;;;7.88;4.75;;;;;16.80;101376.00;;;;5087390;28;20690;-76
2022/10/14 00:04:21;;;;;;;9.55;4.97;;;;;16.70;101361.00;;;;5089679;28;20194;-76
2022/10/14 00:06:48;;;;;;;10.68;5.38;;;;;16.70;101365.00;;;;5091159;28;20220;-76
2022/10/14 00:09:15;;;;;;;9.05;6.15;;;;;16.70;101364.00;;;;5088262;28;20209;-76
2022/10/14 00:11:43;;;;;;;10.35;5.40;;;;;16.70;101365.00;;;;5088714;28;20217;-76
2022/10/14 00:14:15;;;;;;;13.25;5.28;;;;;16.70;101370.00;;;;5082564;28;20191;-76
2022/10/14 00:16:46;;;;;;;12.10;6.07;;;;;16.70;101373.00;;;;5089744;28;20194;-76
2022/10/14 00:19:14;;;;;;;10.52;5.55;;;;;16.70;101368.00;;;;5087911;28;20231;-76
2022/10/14 00:21:43;;;;;;;9.68;5.30;;;;;16.70;101372.00;;;;5091124;28;20214;-76
2022/10/14 00:24:12;;;;;;;12.43;6.18;;;;;16.70;101366.00;;;;5089820;28;20225;-76
2022/10/14 00:26:40;;;;;;;11.52;5.78;;;;;16.70;101369.00;;;;5090860;28;20198;-76
2022/10/14 00:29:10;;;;;;;14.27;6.50;;;;;16.70;101364.00;;;;5091206;28;20225;-76
2022/10/14 00:31:38;;;;;;;10.43;5.78;;;;;16.70;101367.00;;;;5074664;28;20656;-76
2022/10/14 00:34:06;;;;;;;9.30;5.78;;;;;16.70;101365.00;;;;5084786;28;20281;-76
2022/10/14 00:36:34;;;;;;;8.80;5.15;;;;;16.70;101363.00;;;;5090636;28;20209;-76
2022/10/14 00:39:01;;;;;;;11.98;5.80;;;;;16.70;101355.00;;;;5086109;28;20221;-76
2022/10/14 00:41:30;;;;;;;18.42;5.78;;;;;16.70;101358.00;;;;5087061;28;20190;-76
2022/10/14 00:44:01;;;;;;;9.63;5.45;;;;;16.60;101350.00;;;;5090300;28;20194;-76
2022/10/14 00:46:31;;;;;;;18.85;6.22;;;;;16.70;101342.00;;;;5091504;28;20202;-76
2022/10/14 00:49:00;;;;;;;19.25;5.78;;;;;16.70;101329.00;;;;5089534;28;20190;-76
2022/10/14 00:51:29;;;;;;;11.32;5.57;;;;;16.60;101327.00;;;;5084561;28;20198;-76
2022/10/14 00:53:56;;;;;;;15.40;5.85;;;;;16.60;101333.00;;;;5090893;28;20284;-76
2022/10/14 00:56:28;;;;;;;12.85;5.88;;;;;16.60;101326.00;;;;5089552;28;20206;-76
2022/10/14 00:58:57;;;;;;;12.73;5.82;;;;;16.60;101325.00;;;;5090686;28;20226;-76
2022/10/14 01:01:24;;;;;;;10.50;6.45;;;;;16.60;101313.00;;;;5087679;28;20198;-76
2022/10/14 01:03:51;;;;;;;11.32;6.85;;;;;16.70;101302.00;;;;5090118;28;20762;-76
2022/10/14 01:06:34;;;;;;;12.77;6.85;;;;;16.60;101281.00;;;;5088828;28;20199;-76
2022/10/14 01:09:09;;;;;;;9.98;5.97;;;;;16.60;101280.00;;;;5088791;28;20194;-76
2022/10/14 01:11:42;;;;;;;13.25;7.15;;;;;16.60;101274.00;;;;5084970;28;20201;-76
2022/10/14 01:14:22;;;;;;;10.38;6.97;;;;;16.60;101279.00;;;;5071943;28;20202;-76
2022/10/14 01:16:59;;;;;;;18.70;6.38;;;;;16.60;101276.00;;;;5070951;28;20221;-76
2022/10/14 01:19:49;;;;;;;15.35;7.00;;;;;16.50;101270.00;;;;5089403;28;20715;-76
2022/10/14 01:22:23;;;;;;;9.05;6.47;;;;;16.60;101267.00;;;;5086505;28;20218;-76
2022/10/14 01:25:06;;;;;;;9.20;6.40;;;;;16.60;101259.00;;;;5088713;28;20284;-76
2022/10/14 01:27:57;;;;;;;17.77;7.68;;;;;16.60;101259.00;;;;5089831;28;20201;-76
2022/10/14 01:30:28;;;;;;;18.83;7.75;;;;;16.70;101255.00;;;;5080321;28;20234;-76
2022/10/14 01:33:07;;;;;;;11.43;8.30;;;;;16.60;101260.00;;;;5087370;28;20202;-76
2022/10/14 01:35:43;;;;;;;17.17;9.07;;;;;16.60;101264.00;;;;5088589;28;20209;-76
2022/10/14 01:38:14;;;;;;;11.68;8.90;;;;;16.70;101260.00;;;;5086246;28;20209;-76
2022/10/14 01:40:51;;;;;;;12.95;8.82;;;;;16.70;101259.00;;;;5073533;28;20225;-76
2022/10/14 01:43:21;;;;;;;24.52;9.18;;;;;16.70;101254.00;;;;5069941;28;20201;-76
2022/10/14 01:45:51;;;;;;;10.25;7.97;;;;;16.70;101267.00;;;;5085376;28;20206;-76
2022/10/14 01:48:22;;;;;;;13.27;7.90;;;;;16.80;101269.00;;;;5087278;28;20208;-76
2022/10/14 01:50:53;;;;;;;14.60;8.75;;;;;16.80;101267.00;;;;5082436;28;20201;-76
2022/10/14 01:53:24;;;;;;;10.93;7.90;;;;;16.80;101274.00;;;;5086621;28;20194;-76
2022/10/14 01:55:55;;;;;;;13.90;9.30;;;;;16.80;101275.00;;;;5071089;28;20678;-76
2022/10/14 01:58:26;;;;;;;13.20;9.18;;;;;16.90;101279.00;;;;5078247;28;20465;-76
2022/10/14 02:00:55;;;;;;;13.80;9.10;;;;;16.90;101285.00;;;;5079116;28;20229;-76
2022/10/14 02:03:23;;;;;;;17.80;9.23;;;;;17.00;101276.00;;;;5081971;28;20198;-76
2022/10/14 02:05:58;;;;;;;14.82;8.65;;;;;17.00;101272.00;;;;5085484;28;20191;-76
2022/10/14 02:08:36;;;;;;;16.27;8.73;;;;;17.00;101263.00;;;;5074688;28;20206;-76
2022/10/14 02:11:10;;;;;;;19.88;10.65;;;;;17.00;101268.00;;;;5085552;28;20209;-76
2022/10/14 02:14:00;;;;;;;15.95;9.77;;;;;17.00;101257.00;;;;5075221;28;20194;-76
2022/10/14 02:16:36;;;;;;;12.80;8.48;;;;;17.00;101256.00;;;;5080318;28;21058;-76
2022/10/14 02:19:14;;;;;;;16.23;9.32;;;;;17.00;101259.00;;;;5089298;28;20737;-76
2022/10/14 02:21:45;;;;;;;13.80;8.40;;;;;17.10;101254.00;;;;5086820;28;20251;-76
2022/10/14 02:24:18;;;;;;;17.13;8.82;;;;;17.10;101253.00;;;;5088152;28;20198;-76
2022/10/14 02:26:47;;;;;;;12.95;9.02;;;;;17.10;101255.00;;;;5089518;28;20205;-76
2022/10/14 02:29:14;;;;;;;14.38;9.07;;;;;17.10;101261.00;;;;5088887;28;20245;-76
2022/10/14 02:31:44;;;;;;;20.30;10.55;;;;;17.10;101250.00;;;;5088041;28;20205;-76
2022/10/14 02:34:16;;;;;;;16.55;8.57;;;;;17.20;101253.00;;;;5087130;28;20201;-76
2022/10/14 02:36:44;;;;;;;13.52;9.73;;;;;17.20;101253.00;;;;5087535;28;20575;-76
2022/10/14 02:39:15;;;;;;;14.68;9.35;;;;;17.20;101261.00;;;;5073635;28;20241;-76
2022/10/14 02:41:42;;;;;;;12.77;9.50;;;;;17.20;101253.00;;;;5084365;28;20537;-76
2022/10/14 02:44:10;;;;;;;14.75;10.07;;;;;17.20;101246.00;;;;5087574;28;20205;-76
2022/10/14 02:46:40;;;;;;;13.02;9.52;;;;;17.20;101237.00;;;;5086724;28;20210;-76
2022/10/14 02:49:08;;;;;;;14.95;9.60;;;;;17.30;101232.00;;;;5088275;28;20683;-76
2022/10/14 02:51:35;;;;;;;15.93;10.18;;;;;17.30;101232.00;;;;5088341;28;20202;-76
2022/10/14 02:54:03;;;;;;;16.08;9.32;;;;;17.30;101231.00;;;;5087745;28;20698;-76
2022/10/14 02:56:30;;;;;;;12.05;8.75;;;;;17.30;101230.00;;;;5087611;28;20198;-76
2022/10/14 02:58:57;;;;;;;14.43;10.15;;;;;17.30;101233.00;;;;5087891;28;20198;-76
2022/10/14 03:01:25;;;;;;;13.73;10.27;;;;;17.30;101220.00;;;;5088023;28;20656;-76
2022/10/14 03:03:52;;;;;;;13.70;9.50;;;;;17.30;101211.00;;;;5088601;28;20691;-76
2022/10/14 03:06:20;;;;;;;13.38;9.63;;;;;17.30;101223.00;;;;5085123;28;20198;-76
2022/10/14 03:08:48;;;;;;;12.10;8.52;;;;;17.40;101213.00;;;;5088999;28;20571;-76
2022/10/14 03:11:15;;;;;;;10.55;7.57;;;;;17.40;101222.00;;;;5087612;28;20209;-76
2022/10/14 03:13:42;;;;;;;14.43;10.30;;;;;17.40;101212.00;;;;5087327;28;20183;-76
2022/10/14 03:16:10;;;;;;;15.07;10.32;;;;;17.40;101207.00;;;;5086870;28;20209;-76
2022/10/14 03:18:37;;;;;;;16.58;11.30;;;;;17.40;101203.00;;;;5088083;28;20194;-76
2022/10/14 03:21:04;;;;;;;15.70;10.63;;;;;17.50;101203.00;;;;5087994;28;20683;-76
2022/10/14 03:23:33;;;;;;;17.88;9.93;;;;;17.50;101200.00;;;;5089084;28;20190;-76
2022/10/14 03:26:00;;;;;;;18.13;10.52;;;;;17.50;101207.00;;;;5084980;28;20195;-76
2022/10/14 03:28:27;;;;;;;17.95;11.30;;;;;17.50;101205.00;;;;5088021;28;20194;-76
2022/10/14 03:30:54;;;;;;;15.50;10.68;;;;;17.60;101204.00;;;;5088121;28;20203;-76
2022/10/14 03:33:22;;;;;;;16.40;10.73;;;;;17.60;101193.00;;;;5087007;28;21696;-76
2022/10/14 03:35:49;;;;;;;16.58;10.95;;;;;17.60;101191.00;;;;5077998;28;20574;-76
2022/10/14 03:38:16;;;;;;;16.83;11.02;;;;;17.60;101194.00;;;;5086046;28;20678;-76
2022/10/14 03:40:45;;;;;;;18.58;10.70;;;;;17.60;101188.00;;;;5072590;28;20234;-76
2022/10/14 03:43:12;;;;;;;18.85;12.25;;;;;17.70;101190.00;;;;5086116;28;20396;-76
2022/10/14 03:45:39;;;;;;;16.88;11.68;;;;;17.70;101187.00;;;;5081232;28;20214;-76
2022/10/14 03:48:07;;;;;;;16.90;10.98;;;;;17.70;101182.00;;;;5085523;28;20207;-76
2022/10/14 03:50:34;;;;;;;18.90;11.27;;;;;17.70;101171.00;;;;5083040;28;20213;-76
2022/10/14 03:53:01;;;;;;;21.13;11.45;;;;;17.80;101167.00;;;;5088798;28;20198;-76
2022/10/14 03:55:29;;;;;;;15.05;11.27;;;;;17.80;101168.00;;;;5085906;28;20198;-76
2022/10/14 03:57:58;;;;;;;18.40;11.85;;;;;17.80;101166.00;;;;5086113;28;20202;-76
2022/10/14 04:00:25;;;;;;;18.88;12.18;;;;;17.80;101164.00;;;;5087208;28;20241;-77
2022/10/14 04:02:53;;;;;;;16.13;11.13;;;;;17.80;101168.00;;;;5088249;28;20197;-77
2022/10/14 04:05:20;;;;;;;16.70;10.88;;;;;17.80;101159.00;;;;5084406;28;20625;-76
2022/10/14 04:07:47;;;;;;;20.20;12.10;;;;;17.90;101147.00;;;;5080451;28;20198;-77
2022/10/14 04:10:14;;;;;;;18.75;12.60;;;;;17.90;101147.00;;;;5071501;28;20209;-76
2022/10/14 04:12:42;;;;;;;16.08;10.98;;;;;17.90;101149.00;;;;5087388;28;20205;-76
2022/10/14 04:15:11;;;;;;;15.20;10.38;;;;;17.90;101150.00;;;;5083784;28;20684;-76
2022/10/14 04:17:38;;;;;;;22.58;11.88;;;;;17.90;101138.00;;;;5086429;28;20723;-76
2022/10/14 04:20:06;;;;;;;21.45;13.18;;;;;17.90;101147.00;;;;5087393;28;20257;-76
2022/10/14 04:22:34;;;;;;;18.45;12.43;;;;;18.00;101153.00;;;;5085776;28;20198;-76
2022/10/14 04:25:01;;;;;;;21.30;12.55;;;;;18.00;101149.00;;;;5087254;28;20227;-76
2022/10/14 04:27:28;;;;;;;19.60;12.20;;;;;18.00;101138.00;;;;5080659;28;20198;-76
2022/10/14 04:29:55;;;;;;;19.90;11.43;;;;;18.00;101140.00;;;;5086075;28;20328;-76
2022/10/14 04:32:24;;;;;;;16.98;11.82;;;;;18.00;101134.00;;;;5074862;28;20207;-76
2022/10/14 04:34:53;;;;;;;21.15;13.25;;;;;18.10;101132.00;;;;5077926;28;20372;-76
2022/10/14 04:37:20;;;;;;;17.75;11.80;;;;;18.10;101136.00;;;;5077584;28;20291;-76
2022/10/14 04:39:48;;;;;;;19.23;11.63;;;;;18.10;101138.00;;;;5079202;28;20229;-76
2022/10/14 04:42:15;;;;;;;16.63;11.32;;;;;18.10;101132.00;;;;5081009;28;20206;-76
2022/10/14 04:44:42;;;;;;;19.60;12.13;;;;;18.20;101132.00;;;;5075068;28;20205;-76
2022/10/14 04:47:09;;;;;;;17.27;11.52;;;;;18.20;101127.00;;;;5082808;28;20186;-76
2022/10/14 04:49:38;;;;;;;21.25;13.50;;;;;18.20;101118.00;;;;5085134;28;20538;-76
2022/10/14 04:52:05;;;;;;;16.75;10.98;;;;;18.20;101119.00;;;;5085949;28;20585;-76
2022/10/14 04:54:33;;;;;;;19.85;12.30;;;;;18.20;101119.00;;;;5074241;28;21234;-76
2022/10/14 04:57:00;;;;;;;20.55;13.57;;;;;18.30;101115.00;;;;5080735;28;20205;-76
2022/10/14 04:59:27;;;;;;;19.38;12.48;;;;;18.30;101117.00;;;;5079619;28;20203;-76
2022/10/14 05:01:54;;;;;;;18.20;11.07;;;;;18.30;101120.00;;;;5083160;28;20225;-76
2022/10/14 05:04:22;;;;;;;18.75;12.02;;;;;18.30;101113.00;;;;5088213;28;20190;-76
2022/10/14 05:06:50;;;;;;;18.65;12.52;;;;;18.40;101109.00;;;;5073722;28;20205;-76
2022/10/14 05:09:18;;;;;;;21.10;12.20;;;;;18.40;101104.00;;;;5074208;28;20635;-76
2022/10/14 05:11:45;;;;;;;17.70;11.27;;;;;18.40;101086.00;;;;5079206;28;20198;-76
2022/10/14 05:14:12;;;;;;;19.30;12.02;;;;;18.40;101090.00;;;;5076567;28;20190;-76
2022/10/14 05:16:39;;;;;;;19.75;12.98;;;;;18.40;101089.00;;;;5078213;28;20225;-76
2022/10/14 05:19:07;;;;;;;18.33;12.27;;;;;18.50;101084.00;;;;5084831;28;20675;-76
2022/10/14 05:21:34;;;;;;;19.08;12.20;;;;;18.50;101075.00;;;;5078695;28;20226;-76
2022/10/14 05:24:03;;;;;;;19.00;12.13;;;;;18.50;101081.00;;;;5089853;28;20202;-76
2022/10/14 05:26:30;;;;;;;18.73;12.73;;;;;18.50;101076.00;;;;5084602;28;20202;-76
2022/10/14 05:28:57;;;;;;;18.05;12.05;;;;;18.50;101080.00;;;;5071601;28;20768;-76
2022/10/14 05:31:24;;;;;;;14.35;9.70;;;;;18.60;101072.00;;;;5090528;28;20213;-76
2022/10/14 05:33:52;;;;;;;16.48;11.85;;;;;18.60;101067.00;;;;5089755;28;20209;-76
2022/10/14 05:36:19;;;;;;;17.98;11.20;;;;;18.60;101065.00;;;;5089138;28;20194;-76
2022/10/14 05:38:47;;;;;;;14.90;10.32;;;;;18.60;101060.00;;;;5085560;28;20202;-76
2022/10/14 05:41:16;;;;;;;14.00;9.80;;;;;18.60;101060.00;;;;5086758;28;20218;-76
2022/10/14 05:43:43;;;;;;;16.40;10.05;;;;;18.70;101058.00;;;;5089990;28;20648;-76
2022/10/14 05:46:10;;;;;;;13.75;9.68;;;;;18.70;101056.00;;;;5090610;28;20205;-76
2022/10/14 05:48:37;;;;;;;15.05;9.77;;;;;18.70;101053.00;;;;5089140;28;20199;-77
2022/10/14 05:51:05;;;;;;;12.88;8.38;;;;;18.70;101053.00;;;;5089643;28;20750;-77
2022/10/14 05:53:32;;;;;;;11.40;8.02;;;;;18.70;101050.00;;;;5089143;28;20706;-76
2022/10/14 05:56:03;;;;;;;12.13;8.25;;;;;18.70;101055.00;;;;5077467;28;20202;-76
2022/10/14 05:58:32;;;;;;;9.98;7.13;;;;;18.70;101044.00;;;;5073275;28;20209;-76
2022/10/14 06:01:00;;;;;;;9.52;7.75;;;;;18.80;101045.00;;;;5078812;28;20218;-77
2022/10/14 06:03:28;;;;;;;10.15;7.93;;;;;18.80;101039.00;;;;5076631;28;20195;-77
2022/10/14 06:05:55;;;;;;;9.07;6.85;;;;;18.80;101038.00;;;;5079625;28;20198;-78
2022/10/14 06:08:23;;;;;;;8.23;6.50;;;;;18.80;101035.00;;;;5076637;28;20195;-77
2022/10/14 06:10:50;;;;;;;6.90;5.70;;;;;18.80;101036.00;;;;5084739;28;20253;-77
2022/10/14 06:13:18;;;;;;;7.78;6.13;;;;;18.80;101033.00;;;;5067672;28;20206;-77
2022/10/14 06:15:47;;;;;;;7.93;6.22;;;;;18.80;101033.00;;;;5068533;28;20203;-77
2022/10/14 06:18:14;;;;;;;6.50;5.72;;;;;18.90;101026.00;;;;5085437;28;20556;-77
2022/10/14 06:20:41;;;;;;;6.72;5.75;;;;;18.90;101024.00;;;;5085923;28;20222;-77
2022/10/14 06:23:08;;;;;;;6.82;5.53;;;;;18.90;101030.00;;;;5073428;28;20206;-77
2022/10/14 06:25:37;;;;;;;6.78;5.40;;;;;18.90;101023.00;;;;5088601;28;20563;-77
2022/10/14 06:28:05;;;;;;;5.72;5.10;;;;;18.90;101024.00;;;;5088635;28;20194;-77
2022/10/14 06:30:32;;;;;;;9.57;5.80;;;;;19.00;101029.00;;;;5089814;28;20230;-77
2022/10/14 06:33:01;;;;;;;6.13;5.18;;;;;19.00;101018.00;;;;5089887;28;20670;-77
2022/10/14 06:35:28;;;;;;;5.70;5.13;;;;;19.00;101018.00;;;;5090139;28;20198;-77
2022/10/14 06:37:56;;;;;;;5.68;4.82;;;;;19.00;101022.00;;;;5089688;28;20195;-77
2022/10/14 06:40:23;;;;;;;5.25;4.65;;;;;19.00;101017.00;;;;5077480;28;20221;-77
2022/10/14 06:42:51;;;;;;;5.78;4.85;;;;;19.00;101009.00;;;;5089196;28;20652;-77
2022/10/14 06:45:18;;;;;;;5.45;4.53;;;;;19.00;101004.00;;;;5089219;28;20202;-77
2022/10/14 06:47:45;;;;;;;5.68;4.65;;;;;19.10;101010.00;;;;5089625;28;20201;-77
2022/10/14 06:50:14;;;;;;;4.72;4.22;;;;;19.10;101010.00;;;;5088629;28;20298;-77
2022/10/14 06:52:41;;;;;;;4.43;3.92;;;;;19.10;101019.00;;;;5088567;28;20587;-78
2022/10/14 06:55:09;;;;;;;4.97;4.47;;;;;19.10;101004.00;;;;5089030;28;20191;-77
2022/10/14 06:57:36;;;;;;;4.85;4.45;;;;;19.10;101001.00;;;;5089425;28;20210;-77
2022/10/14 07:00:04;;;;;;;5.53;4.65;;;;;19.10;101007.00;;;;5088825;28;20665;-78
2022/10/14 07:02:31;;;;;;;6.13;4.38;;;;;19.20;101009.00;;;;5089463;28;20225;-77
2022/10/14 07:04:58;;;;;;;4.90;4.40;;;;;19.20;101008.00;;;;5088612;28;20195;-77
2022/10/14 07:07:27;;;;;;;4.35;3.95;;;;;19.20;101014.00;;;;5087656;28;20198;-78
2022/10/14 07:09:54;;;;;;;4.85;4.35;;;;;19.20;101006.00;;;;5088377;28;20206;-76
2022/10/14 07:12:21;;;;;;;4.85;4.35;;;;;19.20;101006.00;;;;5088593;28;20625;-76
2022/10/14 07:14:49;;;;;;;5.53;4.22;;;;;19.20;101010.00;;;;5088446;28;20698;-76
2022/10/14 07:17:16;;;;;;;5.07;4.32;;;;;19.20;101004.00;;;;5087563;28;20202;-75
2022/10/14 07:19:43;;;;;;;4.70;4.10;;;;;19.30;101001.00;;;;5088137;28;20742;-76
2022/10/14 07:22:10;;;;;;;5.13;4.20;;;;;19.30;101002.00;;;;5085444;28;20221;-76
2022/10/14 07:24:39;;;;;;;5.45;4.88;;;;;19.30;101001.00;;;;5087897;28;20203;-76
2022/10/14 07:27:09;;;;;;;4.50;4.10;;;;;19.30;101002.00;;;;5087298;28;20205;-75
2022/10/14 07:29:36;;;;;;;6.10;4.88;;;;;19.40;100993.00;;;;5087599;28;20218;-76
2022/10/14 07:32:04;;;;;;;7.53;4.93;;;;;19.40;101006.00;;;;5087475;28;20663;-76
2022/10/14 07:34:33;;;;;;;5.07;4.32;;;;;19.40;101008.00;;;;5088306;28;20667;-76
2022/10/14 07:37:00;;;;;;;5.57;4.88;;;;;19.40;101007.00;;;;5087455;28;20202;-76
2022/10/14 07:39:27;;;;;;;5.50;4.93;;;;;19.40;100997.00;;;;5079292;28;20207;-76
2022/10/14 07:41:56;;;;;;;5.20;4.68;;;;;19.40;100997.00;;;;5070777;28;20229;-76
2022/10/14 07:44:23;;;;;;;6.70;5.28;;;;;19.50;101001.00;;;;5087480;28;20232;-77
2022/10/14 07:46:51;;;;;;;7.05;5.72;;;;;19.50;101006.00;;;;5087999;28;20202;-76
2022/10/14 07:49:21;;;;;;;6.78;5.72;;;;;19.50;101004.00;;;;5086837;28;20197;-77
2022/10/14 07:51:49;;;;;;;5.88;5.28;;;;;19.50;101005.00;;;;5069079;28;20199;-76
2022/10/14 07:54:18;;;;;;;8.30;5.47;;;;;19.50;101006.00;;;;5067154;28;20211;-76
2022/10/14 07:56:48;;;;;;;6.22;5.63;;;;;19.50;101002.00;;;;5067703;28;20194;-76
2022/10/14 07:59:17;;;;;;;6.28;5.28;;;;;19.50;101006.00;;;;5077380;28;20467;-77
2022/10/14 08:01:46;;;;;;;6.43;5.53;;;;;19.50;100999.00;;;;5088211;28;20226;-77
2022/10/14 08:04:13;;;;;;;6.28;5.65;;;;;19.60;100999.00;;;;5086109;28;20198;-76
2022/10/14 08:06:41;;;;;;;6.93;5.93;;;;;19.60;100999.00;;;;5087099;28;20280;-76
2022/10/14 08:09:09;;;;;;;6.75;5.97;;;;;19.60;100993.00;;;;5087256;28;20255;-76
2022/10/14 08:11:37;;;;;;;6.30;5.13;;;;;19.60;100996.00;;;;5086390;28;20598;-78
2022/10/14 08:14:05;;;;;;;7.38;6.20;;;;;19.60;100992.00;;;;5086395;28;20194;-77
2022/10/14 08:16:35;;;;;;;6.45;5.07;;;;;19.60;100989.00;;;;5087784;28;20224;-77
2022/10/14 08:19:05;;;;;;;7.18;6.10;;;;;19.70;100985.00;;;;5082920;28;20218;-77
2022/10/14 08:21:33;;;;;;;8.75;6.43;;;;;19.70;100983.00;;;;5071183;28;20230;-77
2022/10/14 08:24:00;;;;;;;8.05;5.90;;;;;19.70;100988.00;;;;5090588;28;20210;-77
2022/10/14 08:26:29;;;;;;;8.88;5.80;;;;;19.70;100989.00;;;;5091378;28;20209;-77
2022/10/14 08:28:57;;;;;;;6.97;5.50;;;;;19.70;100980.00;;;;5092169;28;20226;-77
2022/10/14 08:31:25;;;;;;;7.68;6.18;;;;;19.80;100976.00;;;;5091667;28;20198;-76
2022/10/14 08:33:53;;;;;;;7.15;5.45;;;;;19.80;100973.00;;;;5090307;28;20204;-76
2022/10/14 08:36:21;;;;;;;10.10;6.43;;;;;19.80;100973.00;;;;5090144;28;20213;-78
2022/10/14 08:38:51;;;;;;;7.10;5.97;;;;;19.80;100972.00;;;;5089959;28;20207;-78
2022/10/14 08:41:30;;;;;;;7.32;5.47;;;;;19.80;100977.00;;;;5070474;28;20507;-78
2022/10/14 08:44:11;;;;;;;6.55;5.85;;;;;19.80;100976.00;;;;5083218;28;20202;-78
2022/10/14 08:46:42;;;;;;;6.93;5.57;;;;;19.90;100980.00;;;;5084955;28;20195;-78
2022/10/14 08:49:19;;;;;;;6.70;5.68;;;;;19.90;100979.00;;;;5080085;28;20186;-78
2022/10/14 08:51:53;;;;;;;7.35;4.93;;;;;19.90;100986.00;;;;5079547;28;20198;-78
2022/10/14 08:54:27;;;;;;;7.30;5.13;;;;;19.90;100985.00;;;;5091495;28;20208;-78
2022/10/14 08:56:56;;;;;;;8.60;5.97;;;;;20.00;100982.00;;;;5088118;28;20198;-78
2022/10/14 08:59:25;;;;;;;5.40;4.68;;;;;20.00;100982.00;;;;5091251;28;20206;-77
2022/10/14 09:01:55;;;;;;;5.50;4.97;;;;;20.00;100970.00;;;;5089957;28;20221;-78
2022/10/14 09:04:23;;;;;;;5.65;5.05;;;;;20.00;100971.00;;;;5083435;28;20199;-77
2022/10/14 09:06:53;;;;;;;6.10;5.50;;;;;20.10;100970.00;;;;5087601;28;20202;-78
2022/10/14 09:09:24;;;;;;;5.60;4.78;;;;;20.10;100963.00;;;;5090813;28;20210;-78
2022/10/14 09:11:56;;;;;;;5.68;5.00;;;;;20.10;100970.00;;;;5084738;28;20198;-78
2022/10/14 09:14:26;;;;;;;6.07;4.95;;;;;20.10;100969.00;;;;5090559;28;20405;-79
2022/10/14 09:17:00;;;;;;;5.95;5.35;;;;;20.10;100961.00;;;;5086277;28;20199;-79
2022/10/14 09:19:32;;;;;;;7.40;5.28;;;;;20.10;100961.00;;;;5083411;28;20198;-79
2022/10/14 09:22:01;;;;;;;5.45;4.82;;;;;20.20;100962.00;;;;5089688;28;20222;-79
2022/10/14 09:24:32;;;;;;;8.35;5.25;;;;;20.20;100959.00;;;;5089701;28;20214;-79
2022/10/14 09:27:04;;;;;;;6.72;5.45;;;;;20.20;100964.00;;;;5086217;28;20206;-79
2022/10/14 09:29:37;;;;;;;6.68;5.32;;;;;20.20;100963.00;;;;5087873;28;20218;-78
2022/10/14 09:32:08;;;;;;;5.15;4.65;;;;;20.20;100953.00;;;;5073405;28;20211;-78
2022/10/14 09:34:40;;;;;;;4.65;4.00;;;;;20.20;100950.00;;;;5078388;28;20201;-78
2022/10/14 09:37:22;;;;;;;6.03;4.97;;;;;20.20;100942.00;;;;5084234;28;20206;-78
2022/10/14 09:39:50;;;;;;;7.20;5.35;;;;;20.30;100954.00;;;;5077471;28;20194;-77
2022/10/14 09:42:21;;;;;;;6.65;5.47;;;;;20.30;100952.00;;;;5082789;28;20605;-77
2022/10/14 09:45:08;;;;;;;5.60;5.05;;;;;20.30;100953.00;;;;5086010;28;20202;-77
2022/10/14 09:47:43;;;;;;;6.28;5.30;;;;;20.40;100948.00;;;;5077717;28;20206;-77
2022/10/14 09:50:22;;;;;;;5.95;5.10;;;;;20.30;100952.00;;;;5088483;28;20201;-77
2022/10/14 09:52:54;;;;;;;7.35;5.80;;;;;20.40;100946.00;;;;5088994;28;20322;-77
2022/10/14 09:55:24;;;;;;;7.88;5.95;;;;;20.50;100940.00;;;;5089342;28;20209;-77
2022/10/14 09:58:03;;;;;;;5.82;5.28;;;;;20.40;100939.00;;;;5088919;28;20561;-77
2022/10/14 10:00:32;;;;;;;7.20;5.18;;;;;20.50;100936.00;;;;5089818;28;20198;-77
2022/10/14 10:02:59;;;;;;;6.57;5.63;;;;;20.50;100942.00;;;;5088526;28;21213;-77
2022/10/14 10:05:30;;;;;;;7.07;5.53;;;;;20.50;100940.00;;;;5089525;28;20210;-77
2022/10/14 10:08:12;;;;;;;6.38;5.68;;;;;20.50;100935.00;;;;5089726;28;20202;-76
2022/10/14 10:10:39;;;;;;;5.70;5.13;;;;;20.60;100927.00;;;;5089216;28;20220;-77
2022/10/14 10:13:21;;;;;;;6.07;5.47;;;;;20.50;100927.00;;;;5089355;28;20198;-77
2022/10/14 10:15:58;;;;;;;6.38;4.80;;;;;20.50;100931.00;;;;5089813;28;20198;-77
2022/10/14 10:18:26;;;;;;;6.20;5.47;;;;;20.60;100933.00;;;;5088807;28;20668;-77
2022/10/14 10:21:05;;;;;;;7.70;5.45;;;;;20.50;100927.00;;;;5089191;28;20210;-77
2022/10/14 10:23:34;;;;;;;5.28;4.78;;;;;20.60;100930.00;;;;5090212;28;20316;-77
2022/10/14 10:26:24;;;;;;;5.55;4.85;;;;;20.50;100925.00;;;;5089047;28;20198;-77
2022/10/14 10:28:53;;;;;;;4.57;4.18;;;;;20.60;100924.00;;;;5088518;28;20737;-76
2022/10/14 10:31:33;;;;;;;5.30;4.45;;;;;20.60;100919.00;;;;5089046;28;20206;-77
2022/10/14 10:34:13;;;;;;;4.60;4.20;;;;;20.60;100921.00;;;;5074656;28;20199;-77
2022/10/14 10:36:47;;;;;;;4.70;3.95;;;;;20.60;100914.00;;;;5068674;28;20198;-77
2022/10/14 10:39:23;;;;;;;3.83;3.53;;;;;20.60;100911.00;;;;5079299;28;20243;-77
2022/10/14 10:42:05;;;;;;;3.72;3.30;;;;;20.60;100910.00;;;;5082460;28;20687;-77
2022/10/14 10:44:58;;;;;;;3.45;2.92;;;;;20.60;100914.00;;;;5088542;28;20209;-77
2022/10/14 10:47:44;;;;;;;4.45;3.38;;;;;20.60;100909.00;;;;5085737;28;20272;-77
2022/10/14 10:50:28;;;;;;;3.40;3.10;;;;;20.60;100908.00;;;;5067495;28;20689;-77
2022/10/14 10:53:19;;;;;;;4.13;3.40;;;;;20.70;100908.00;;;;5068369;28;20199;-77
2022/10/14 10:55:56;;;;;;;4.40;3.38;;;;;20.70;100908.00;;;;5066953;28;20201;-77
2022/10/14 10:58:41;;;;;;;3.45;3.08;;;;;20.70;100905.00;;;;5088062;28;20197;-77
2022/10/14 11:01:24;;;;;;;5.22;3.97;;;;;20.70;100896.00;;;;5085656;28;20199;-77
2022/10/14 11:04:07;;;;;;;3.40;3.10;;;;;20.70;100894.00;;;;5071702;28;20271;-77
2022/10/14 11:12:27;;;;;;;4.18;3.58;;;;;20.80;100881.00;;;;5087664;28;20279;-77
2022/10/14 11:15:15;;;;;;;3.40;3.10;;;;;20.70;100885.00;;;;5087844;28;20205;-77
2022/10/14 11:17:49;;;;;;;3.83;3.47;;;;;20.80;100881.00;;;;5088558;28;20205;-77
2022/10/14 11:20:28;;;;;;;3.33;3.00;;;;;20.70;100878.00;;;;5088492;28;20214;-77
2022/10/14 11:23:12;;;;;;;3.90;2.97;;;;;20.80;100871.00;;;;5087711;28;20232;-77
2022/10/14 11:25:48;;;;;;;3.45;3.15;;;;;20.80;100876.00;;;;5088970;28;20222;-77
2022/10/14 11:28:25;;;;;;;3.35;3.05;;;;;20.80;100870.00;;;;5087542;28;20202;-77
2022/10/14 11:31:00;;;;;;;3.22;2.92;;;;;20.80;100869.00;;;;5085535;28;20575;-77
2022/10/14 11:33:44;;;;;;;3.47;3.10;;;;;20.80;100869.00;;;;5088905;28;20205;-77
2022/10/14 11:36:21;;;;;;;3.08;2.78;;;;;20.80;100861.00;;;;5087383;28;20671;-77
2022/10/14 11:39:00;;;;;;;5.13;3.17;;;;;20.80;100853.00;;;;5084379;28;20198;-77
2022/10/14 11:41:41;;;;;;;3.33;2.63;;;;;20.90;100854.00;;;;5076189;28;20185;-77
2022/10/14 11:44:14;;;;;;;2.75;2.55;;;;;20.90;100838.00;;;;5068336;28;20198;-77
2022/10/14 11:46:46;;;;;;;2.47;2.28;;;;;20.90;100837.00;;;;5075625;28;20206;-78
2022/10/14 11:49:20;;;;;;;3.10;2.80;;;;;21.00;100828.00;;;;5074204;28;20203;-77
2022/10/14 11:51:52;;;;;;;2.92;2.50;;;;;21.00;100828.00;;;;5077533;28;20191;-78
2022/10/14 11:54:27;;;;;;;2.75;2.53;;;;;21.00;100825.00;;;;5091008;28;20186;-78
2022/10/14 11:57:00;;;;;;;2.38;2.15;;;;;21.00;100816.00;;;;5087149;28;20276;-78
2022/10/14 11:59:37;;;;;;;3.33;2.45;;;;;21.00;100824.00;;;;5081262;28;20206;-78
2022/10/14 12:02:19;;;;;;;2.45;2.25;;;;;21.00;100821.00;;;;5090907;28;20213;-78
2022/10/14 12:04:54;;;;;;;3.45;2.50;;;;;21.10;100816.00;;;;5078738;28;20234;-78
2022/10/14 12:07:28;;;;;;;2.45;2.25;;;;;21.10;100807.00;;;;5085030;28;20596;-78
2022/10/14 12:10:00;;;;;;;2.33;2.13;;;;;21.10;100815.00;;;;5090799;28;20201;-78
2022/10/14 12:12:30;;;;;;;3.90;2.30;;;;;21.10;100812.00;;;;5091543;28;20725;-78
2022/10/14 12:15:01;;;;;;;2.67;2.45;;;;;21.20;100813.00;;;;5077151;28;20234;-79
2022/10/14 12:17:34;;;;;;;2.80;2.42;;;;;21.20;100802.00;;;;5071705;28;20692;-77
2022/10/14 12:20:08;;;;;;;2.95;2.70;;;;;21.20;100797.00;;;;5088113;28;20205;-77
2022/10/14 12:22:37;;;;;;;3.08;2.78;;;;;21.30;100798.00;;;;5092264;28;20225;-78
2022/10/14 12:25:12;;;;;;;2.83;2.42;;;;;21.30;100801.00;;;;5091208;28;20201;-78